Time;durP1;ratioP1;P1;durP2;ratioP2;P2;SDS_P1;SDS_P2;PMS_P1;PMS_P2;Temp;Humidity;BMP_temperature;BMP_pressure;BME280_temperature;BME280_humidity;BME280_pressure;Samples;Min_cycle;Max_cycle;Signal;HPM_P1;HPM_P2
2023/05/27 00:02:07;;;;;;;9.48;3.78;;;15.60;92.20;;;;;;5006081;28;20244;-33
2023/05/27 00:04:39;;;;;;;11.80;4.03;;;15.60;92.10;;;;;;4987334;28;20213;-33
2023/05/27 00:07:09;;;;;;;13.07;4.30;;;15.60;92.20;;;;;;4985881;28;20217;-33
2023/05/27 00:09:36;;;;;;;13.35;4.15;;;15.60;92.00;;;;;;5000737;28;20854;-33
2023/05/27 00:12:04;;;;;;;13.90;4.35;;;15.60;92.30;;;;;;4997080;28;20209;-33
2023/05/27 00:14:31;;;;;;;10.52;3.90;;;15.50;92.40;;;;;;4994181;28;20205;-33
2023/05/27 00:17:01;;;;;;;14.32;4.40;;;15.50;92.20;;;;;;4990496;28;20210;-33
2023/05/27 00:19:30;;;;;;;10.88;3.90;;;15.40;92.30;;;;;;5005592;28;20193;-33
2023/05/27 00:22:00;;;;;;;11.73;3.90;;;15.40;92.20;;;;;;5004780;28;20229;-33
2023/05/27 00:24:30;;;;;;;11.97;4.00;;;15.40;92.40;;;;;;4988420;28;20206;-33
2023/05/27 00:26:57;;;;;;;11.73;3.95;;;15.40;92.30;;;;;;4985818;28;20272;-33
2023/05/27 00:29:24;;;;;;;12.05;3.92;;;15.30;92.20;;;;;;4986230;28;20229;-33
2023/05/27 00:31:54;;;;;;;12.75;4.13;;;15.30;92.20;;;;;;4993863;28;20250;-32
2023/05/27 00:34:23;;;;;;;15.32;4.25;;;15.30;92.20;;;;;;4986824;28;20556;-33
2023/05/27 00:36:50;;;;;;;13.75;4.40;;;15.20;92.30;;;;;;4985891;28;20220;-33
2023/05/27 00:39:22;;;;;;;11.00;4.35;;;15.20;92.20;;;;;;4983793;28;20220;-33
2023/05/27 00:41:50;;;;;;;11.25;4.07;;;15.20;92.20;;;;;;4976978;28;20222;-33
2023/05/27 00:44:21;;;;;;;10.07;4.15;;;15.20;92.40;;;;;;4983145;28;20204;-33
2023/05/27 00:46:48;;;;;;;11.80;4.05;;;15.10;92.30;;;;;;4978113;28;20246;-33
2023/05/27 00:49:21;;;;;;;13.70;3.65;;;15.10;92.40;;;;;;4981400;28;20279;-32
2023/05/27 00:51:48;;;;;;;13.63;4.47;;;15.10;92.30;;;;;;4977985;28;20332;-33
2023/05/27 00:54:18;;;;;;;13.32;3.90;;;15.10;92.40;;;;;;4978560;28;20214;-33
2023/05/27 00:56:48;;;;;;;11.63;4.15;;;15.00;92.30;;;;;;4991787;28;20260;-33
2023/05/27 00:59:20;;;;;;;13.65;4.22;;;15.00;92.70;;;;;;4986856;28;20580;-33
2023/05/27 01:01:48;;;;;;;14.10;4.30;;;14.90;92.30;;;;;;4991359;28;20229;-33
2023/05/27 01:04:19;;;;;;;14.80;4.40;;;14.90;92.40;;;;;;4977380;28;20776;-33
2023/05/27 01:06:55;;;;;;;11.87;3.93;;;14.90;92.40;;;;;;4985519;28;20303;-33
2023/05/27 01:09:34;;;;;;;12.43;3.78;;;14.80;92.70;;;;;;4985597;28;20609;-33
2023/05/27 01:12:15;;;;;;;13.23;4.10;;;14.80;92.50;;;;;;4999325;28;20201;-33
2023/05/27 01:14:46;;;;;;;14.23;4.68;;;14.80;93.10;;;;;;4998447;28;20210;-33
2023/05/27 01:17:17;;;;;;;11.57;3.97;;;14.70;92.50;;;;;;5000071;28;20210;-33
2023/05/27 01:19:48;;;;;;;14.18;4.10;;;14.70;92.40;;;;;;4996562;28;20588;-33
2023/05/27 01:22:22;;;;;;;12.95;3.90;;;14.70;92.70;;;;;;4983865;28;20247;-33
2023/05/27 01:24:52;;;;;;;13.48;3.85;;;14.60;92.60;;;;;;4986814;28;20201;-33
2023/05/27 01:27:24;;;;;;;13.18;4.57;;;14.60;92.60;;;;;;4990479;28;20204;-33
2023/05/27 01:30:00;;;;;;;12.25;3.83;;;14.50;92.90;;;;;;4997596;28;20194;-32
2023/05/27 01:32:35;;;;;;;10.40;3.72;;;14.50;92.40;;;;;;4984842;28;20223;-33
2023/05/27 01:35:13;;;;;;;16.35;4.10;;;14.50;92.50;;;;;;4992833;28;20205;-33
2023/05/27 01:37:42;;;;;;;11.88;4.05;;;14.50;92.80;;;;;;4986418;28;20659;-33
2023/05/27 01:40:16;;;;;;;10.13;3.80;;;14.50;92.40;;;;;;4984971;28;20218;-33
2023/05/27 01:42:47;;;;;;;15.57;4.68;;;14.50;92.60;;;;;;4984469;28;20603;-33
2023/05/27 01:45:17;;;;;;;16.02;4.68;;;14.50;92.60;;;;;;4991793;28;20198;-33
2023/05/27 01:47:47;;;;;;;12.32;4.90;;;14.50;92.70;;;;;;4986965;28;20209;-33
2023/05/27 01:50:19;;;;;;;12.90;4.32;;;14.40;92.60;;;;;;4997293;28;20255;-34
2023/05/27 01:52:51;;;;;;;18.48;4.38;;;14.40;92.60;;;;;;4998543;28;20305;-33
2023/05/27 01:55:20;;;;;;;12.70;4.00;;;14.30;92.90;;;;;;4985430;28;20207;-33
2023/05/27 01:57:53;;;;;;;10.23;3.97;;;14.30;92.70;;;;;;4984608;28;20647;-34
2023/05/27 02:00:24;;;;;;;16.00;4.88;;;14.30;92.50;;;;;;4999103;28;20286;-33
2023/05/27 02:02:55;;;;;;;12.15;4.10;;;14.20;92.80;;;;;;4995798;28;20257;-33
2023/05/27 02:05:23;;;;;;;17.80;4.45;;;14.20;92.90;;;;;;4994812;28;20213;-33
2023/05/27 02:07:53;;;;;;;10.52;4.25;;;14.20;92.70;;;;;;5000584;28;20216;-33
2023/05/27 02:10:20;;;;;;;13.65;3.97;;;14.10;92.70;;;;;;4996810;28;20202;-33
2023/05/27 02:12:50;;;;;;;16.20;4.88;;;14.10;92.70;;;;;;5002610;28;20679;-33
2023/05/27 02:15:17;;;;;;;13.95;4.35;;;14.10;93.40;;;;;;5003585;28;20664;-33
2023/05/27 02:17:46;;;;;;;13.35;4.05;;;14.10;93.00;;;;;;4986767;28;20226;-33
2023/05/27 02:20:14;;;;;;;16.40;4.70;;;14.00;93.20;;;;;;4982585;28;20206;-32
2023/05/27 02:22:43;;;;;;;12.65;4.40;;;14.00;92.80;;;;;;4984132;28;20325;-32
2023/05/27 02:25:14;;;;;;;14.82;3.92;;;13.90;92.90;;;;;;4996633;28;20463;-34
2023/05/27 02:27:48;;;;;;;16.15;5.43;;;13.90;92.70;;;;;;4984667;28;20213;-34
2023/05/27 02:30:16;;;;;;;12.27;4.43;;;13.90;92.80;;;;;;5001267;28;20205;-33
2023/05/27 02:32:46;;;;;;;10.82;4.32;;;13.90;92.90;;;;;;4990049;28;20252;-33
2023/05/27 02:35:16;;;;;;;13.60;4.90;;;13.90;93.10;;;;;;4995961;28;20983;-34
2023/05/27 02:37:43;;;;;;;14.20;4.93;;;13.80;93.00;;;;;;4994851;28;20221;-33
2023/05/27 02:40:10;;;;;;;12.83;4.67;;;13.80;93.00;;;;;;4989366;28;20239;-33
2023/05/27 02:42:38;;;;;;;15.50;4.73;;;13.80;93.10;;;;;;4991860;28;20221;-34
2023/05/27 02:45:05;;;;;;;13.37;5.20;;;13.80;92.90;;;;;;5001467;28;20213;-34
2023/05/27 02:47:32;;;;;;;12.43;4.50;;;13.70;93.00;;;;;;4995466;28;20206;-34
2023/05/27 02:50:02;;;;;;;10.30;4.45;;;13.70;92.90;;;;;;4982728;28;20194;-34
2023/05/27 02:52:32;;;;;;;17.85;5.82;;;13.70;92.90;;;;;;4992239;28;20696;-34
2023/05/27 02:55:02;;;;;;;14.13;4.75;;;13.70;93.00;;;;;;4982186;28;20790;-34
2023/05/27 02:57:35;;;;;;;15.95;4.55;;;13.70;93.00;;;;;;4996002;28;20579;-34
2023/05/27 03:00:11;;;;;;;17.90;5.07;;;13.60;93.10;;;;;;4961464;28;20268;-34
2023/05/27 03:02:38;;;;;;;10.60;4.63;;;13.60;93.20;;;;;;4992672;28;20581;-34
2023/05/27 03:05:06;;;;;;;11.73;4.72;;;13.60;92.80;;;;;;4996584;28;20445;-34
2023/05/27 03:07:34;;;;;;;12.98;4.40;;;13.60;93.00;;;;;;4998306;28;20213;-33
2023/05/27 03:10:01;;;;;;;12.80;4.53;;;13.60;93.30;;;;;;4995906;28;20204;-33
2023/05/27 03:12:28;;;;;;;13.50;4.60;;;13.60;93.10;;;;;;5001750;28;20209;-34
2023/05/27 03:15:00;;;;;;;18.90;5.27;;;13.50;92.90;;;;;;4998306;28;20573;-34
2023/05/27 03:17:27;;;;;;;11.43;4.57;;;13.50;92.80;;;;;;4987142;28;20205;-34
2023/05/27 03:19:57;;;;;;;10.38;4.68;;;13.50;93.00;;;;;;4969553;28;20257;-33
2023/05/27 03:22:25;;;;;;;12.10;4.50;;;13.40;93.00;;;;;;5001338;28;20229;-34
2023/05/27 03:24:57;;;;;;;13.60;4.63;;;13.40;93.10;;;;;;5001515;28;20313;-33
2023/05/27 03:27:26;;;;;;;18.90;5.25;;;13.40;93.00;;;;;;4969111;28;20665;-34
2023/05/27 03:29:54;;;;;;;14.73;4.80;;;13.30;93.90;;;;;;5001431;28;20781;-33
2023/05/27 03:32:21;;;;;;;13.30;4.88;;;13.30;93.30;;;;;;5000538;28;20217;-33
2023/05/27 03:34:53;;;;;;;12.68;5.15;;;13.20;93.40;;;;;;4998879;28;20244;-33
2023/05/27 03:37:20;;;;;;;10.43;4.68;;;13.20;93.30;;;;;;4983447;28;20603;-33
2023/05/27 03:39:47;;;;;;;11.25;4.70;;;13.20;93.50;;;;;;4992837;28;20686;-33
2023/05/27 03:42:15;;;;;;;14.98;5.30;;;13.20;93.30;;;;;;4973197;28;20778;-33
2023/05/27 03:44:47;;;;;;;15.00;4.90;;;13.10;93.20;;;;;;4997404;28;20231;-33
2023/05/27 03:47:17;;;;;;;14.03;5.23;;;13.10;93.20;;;;;;4999649;28;20229;-33
2023/05/27 03:49:47;;;;;;;16.47;4.90;;;13.10;93.50;;;;;;4993041;28;20210;-33
2023/05/27 03:52:17;;;;;;;11.90;4.70;;;13.10;93.20;;;;;;4991212;28;20201;-33
2023/05/27 03:54:47;;;;;;;10.93;5.03;;;13.00;93.70;;;;;;4989727;28;20526;-33
2023/05/27 03:57:15;;;;;;;17.13;5.30;;;13.00;93.40;;;;;;4991473;28;20248;-33
2023/05/27 03:59:45;;;;;;;13.63;4.77;;;13.00;93.30;;;;;;4987506;28;20206;-33
2023/05/27 04:02:17;;;;;;;14.13;5.50;;;13.00;93.50;;;;;;4998742;28;20201;-34
2023/05/27 04:04:46;;;;;;;17.38;5.32;;;13.00;93.30;;;;;;4995607;28;20707;-33
2023/05/27 04:07:18;;;;;;;14.48;4.63;;;13.00;94.10;;;;;;4984239;28;20679;-33
2023/05/27 04:09:48;;;;;;;13.47;4.93;;;13.00;93.40;;;;;;4976338;28;20228;-33
2023/05/27 04:12:20;;;;;;;13.07;4.67;;;13.00;93.40;;;;;;4995993;28;20751;-33
2023/05/27 04:14:48;;;;;;;11.95;4.93;;;13.00;93.30;;;;;;4998902;28;20739;-33
2023/05/27 04:17:15;;;;;;;15.33;5.43;;;13.00;93.30;;;;;;4999343;28;20698;-34
2023/05/27 04:19:48;;;;;;;12.80;4.83;;;13.00;93.90;;;;;;4986535;28;20733;-33
2023/05/27 04:22:15;;;;;;;15.57;5.57;;;13.00;93.50;;;;;;5002635;28;20217;-33
2023/05/27 04:24:43;;;;;;;14.35;5.25;;;13.00;93.40;;;;;;5001177;28;20210;-34
2023/05/27 04:27:10;;;;;;;15.15;5.78;;;13.00;93.70;;;;;;4990014;28;20589;-34
2023/05/27 04:29:43;;;;;;;18.63;6.18;;;13.00;93.60;;;;;;4992743;28;20221;-33
2023/05/27 04:32:12;;;;;;;15.23;5.90;;;13.00;94.30;;;;;;4990309;28;20297;-33
2023/05/27 04:34:42;;;;;;;15.57;5.20;;;12.90;93.70;;;;;;5006507;28;20276;-34
2023/05/27 04:37:12;;;;;;;15.60;5.30;;;12.90;93.80;;;;;;4986312;28;20601;-33
2023/05/27 04:39:45;;;;;;;18.40;5.33;;;12.90;93.80;;;;;;4986808;28;20226;-33
2023/05/27 04:42:15;;;;;;;16.30;6.17;;;12.90;93.70;;;;;;4989852;28;20585;-33
2023/05/27 04:44:42;;;;;;;15.03;5.00;;;12.90;94.50;;;;;;5001650;28;20214;-33
2023/05/27 04:47:15;;;;;;;15.07;5.03;;;12.80;94.40;;;;;;4988822;28;20564;-34
2023/05/27 04:49:46;;;;;;;19.77;5.83;;;12.80;93.90;;;;;;4984428;28;20256;-34
2023/05/27 04:52:13;;;;;;;15.83;6.10;;;12.90;94.10;;;;;;4991493;28;20198;-33
2023/05/27 04:54:45;;;;;;;13.00;4.90;;;12.90;94.20;;;;;;4986324;28;20198;-33
2023/05/27 04:57:19;;;;;;;16.50;5.63;;;12.90;94.00;;;;;;4994295;28;20244;-33
2023/05/27 05:02:39;;;;;;;14.27;5.60;;;12.90;94.30;;;;;;4989004;28;20202;-33
2023/05/27 05:05:14;;;;;;;18.87;5.93;;;12.90;94.30;;;;;;4991757;28;20225;-33
2023/05/27 05:07:44;;;;;;;16.38;5.15;;;12.90;94.10;;;;;;4988109;28;20299;-33
2023/05/27 05:10:11;;;;;;;15.77;5.55;;;13.00;94.20;;;;;;5003971;28;20621;-33
2023/05/27 05:12:41;;;;;;;16.17;6.00;;;13.00;94.30;;;;;;4997521;28;20194;-34
2023/05/27 05:15:08;;;;;;;13.63;5.68;;;13.00;94.30;;;;;;4997681;28;21001;-33
2023/05/27 05:17:40;;;;;;;13.87;6.03;;;13.00;94.40;;;;;;4989285;28;20210;-34
2023/05/27 05:20:09;;;;;;;16.27;5.97;;;13.00;94.40;;;;;;5000998;28;20213;-33
2023/05/27 05:22:38;;;;;;;14.07;5.60;;;13.00;94.30;;;;;;4998968;28;20225;-34
2023/05/27 05:25:08;;;;;;;16.08;6.03;;;13.00;94.50;;;;;;4987665;28;20201;-33
2023/05/27 05:27:38;;;;;;;15.67;6.50;;;13.00;94.50;;;;;;5001227;28;20236;-36
2023/05/27 05:30:05;;;;;;;15.55;6.18;;;13.10;94.70;;;;;;4993319;28;20688;-33
2023/05/27 05:32:33;;;;;;;17.03;6.50;;;13.10;94.60;;;;;;4999478;28;20205;-33
2023/05/27 05:35:00;;;;;;;15.18;6.38;;;13.10;94.60;;;;;;5001843;28;20359;-33
2023/05/27 05:37:27;;;;;;;15.30;6.23;;;13.20;94.60;;;;;;5002847;28;20225;-34
2023/05/27 05:39:59;;;;;;;18.98;6.70;;;13.10;94.70;;;;;;5004544;28;20210;-34
2023/05/27 05:42:28;;;;;;;15.40;5.95;;;13.20;95.20;;;;;;4992373;28;20665;-33
2023/05/27 05:44:58;;;;;;;17.02;6.53;;;13.20;94.70;;;;;;4984988;28;20230;-33
2023/05/27 05:47:27;;;;;;;16.50;6.68;;;13.20;94.90;;;;;;4983522;28;20668;-33
2023/05/27 05:49:54;;;;;;;15.83;6.83;;;13.20;95.00;;;;;;4993979;28;20225;-32
2023/05/27 05:52:22;;;;;;;20.77;6.53;;;13.30;94.70;;;;;;4990024;28;20797;-32
2023/05/27 05:54:49;;;;;;;15.82;6.60;;;13.30;94.90;;;;;;4987111;28;20210;-34
2023/05/27 05:57:18;;;;;;;17.67;7.00;;;13.40;95.20;;;;;;4986052;28;20253;-33
2023/05/27 05:59:51;;;;;;;17.33;6.77;;;13.40;95.20;;;;;;4994349;28;20202;-33
2023/05/27 06:02:21;;;;;;;16.07;6.43;;;13.40;94.80;;;;;;5002142;28;20264;-32
2023/05/27 06:04:50;;;;;;;16.70;6.13;;;13.50;95.00;;;;;;4992244;28;20222;-33
2023/05/27 06:07:17;;;;;;;19.07;7.77;;;13.50;94.80;;;;;;4999139;28;20739;-33
2023/05/27 06:09:45;;;;;;;16.42;7.00;;;13.60;95.20;;;;;;4998578;28;20726;-33
2023/05/27 06:12:12;;;;;;;16.23;6.50;;;13.60;94.90;;;;;;5002782;28;20241;-33
2023/05/27 06:14:44;;;;;;;14.10;5.85;;;13.60;95.00;;;;;;5002956;28;20616;-32
2023/05/27 06:17:14;;;;;;;22.73;7.70;;;13.70;94.90;;;;;;5003821;28;20213;-33
2023/05/27 06:19:41;;;;;;;15.95;7.00;;;13.70;95.40;;;;;;4987735;28;20210;-33
2023/05/27 06:22:10;;;;;;;14.75;5.82;;;13.60;95.30;;;;;;4984237;28;20513;-33
2023/05/27 06:24:44;;;;;;;16.17;6.63;;;13.70;95.20;;;;;;5001189;28;20711;-33
2023/05/27 06:27:11;;;;;;;17.80;6.50;;;13.80;95.10;;;;;;5003594;28;20653;-33
2023/05/27 06:29:38;;;;;;;16.67;6.57;;;13.80;95.10;;;;;;5000708;28;20209;-33
2023/05/27 06:32:08;;;;;;;18.02;6.38;;;13.80;95.40;;;;;;5003470;28;20216;-33
2023/05/27 06:34:40;;;;;;;15.43;7.45;;;13.80;95.50;;;;;;4995335;28;20221;-33
2023/05/27 06:37:07;;;;;;;21.77;8.02;;;13.80;95.80;;;;;;4985947;28;20221;-33
2023/05/27 06:39:37;;;;;;;17.90;6.38;;;13.90;95.80;;;;;;4987195;28;20213;-33
2023/05/27 06:42:06;;;;;;;15.70;6.30;;;13.90;95.20;;;;;;4998742;28;20213;-33
2023/05/27 06:44:33;;;;;;;15.75;6.25;;;14.00;95.30;;;;;;4988946;28;20630;-33
2023/05/27 06:47:01;;;;;;;18.08;7.40;;;14.10;95.20;;;;;;4983113;28;20194;-33
2023/05/27 06:49:34;;;;;;;18.27;7.22;;;14.20;95.60;;;;;;4967756;28;20198;-33
2023/05/27 06:52:01;;;;;;;19.58;7.50;;;14.30;95.40;;;;;;4984053;28;20264;-33
2023/05/27 06:54:29;;;;;;;15.90;6.85;;;14.30;95.50;;;;;;4998581;28;20719;-33
2023/05/27 06:57:01;;;;;;;16.77;6.45;;;14.30;95.40;;;;;;4983270;28;20238;-33
2023/05/27 06:59:31;;;;;;;18.08;6.57;;;14.40;95.50;;;;;;4986168;28;20206;-33
2023/05/27 07:02:01;;;;;;;17.42;6.90;;;14.40;95.70;;;;;;5002641;28;20244;-33
2023/05/27 07:04:28;;;;;;;13.85;6.25;;;14.40;95.80;;;;;;4987793;28;20239;-33
2023/05/27 07:06:55;;;;;;;14.60;6.75;;;14.50;95.60;;;;;;4998033;28;20205;-33
2023/05/27 07:09:27;;;;;;;17.00;6.23;;;14.60;95.70;;;;;;4988211;28;20214;-33
2023/05/27 07:11:59;;;;;;;13.88;7.07;;;14.60;95.60;;;;;;4984421;28;20198;-33
2023/05/27 07:14:29;;;;;;;13.67;5.93;;;14.70;95.70;;;;;;4998131;28;20221;-33
2023/05/27 07:16:56;;;;;;;15.60;5.85;;;14.70;95.70;;;;;;5000744;28;20213;-33
2023/05/27 07:19:26;;;;;;;15.40;6.63;;;14.80;95.70;;;;;;4984325;28;20984;-33
2023/05/27 07:21:53;;;;;;;18.92;5.97;;;14.90;95.90;;;;;;4986167;28;20198;-33
2023/05/27 07:24:21;;;;;;;15.43;6.20;;;14.90;95.80;;;;;;4982476;28;20237;-33
2023/05/27 07:26:50;;;;;;;11.85;6.15;;;15.00;95.80;;;;;;4982544;28;20544;-33
2023/05/27 07:29:17;;;;;;;12.57;5.82;;;15.00;95.80;;;;;;4992948;28;20216;-33
2023/05/27 07:31:46;;;;;;;11.73;5.90;;;15.10;95.80;;;;;;4965016;28;20280;-33
2023/05/27 07:34:18;;;;;;;16.98;6.53;;;15.20;95.90;;;;;;4981567;28;20707;-32
2023/05/27 07:36:48;;;;;;;15.88;6.90;;;15.30;96.00;;;;;;4979287;28;20731;-32
2023/05/27 07:39:18;;;;;;;17.05;6.13;;;15.40;96.00;;;;;;4983067;28;20214;-33
2023/05/27 07:41:45;;;;;;;17.00;6.70;;;15.50;96.20;;;;;;4985534;28;20206;-33
2023/05/27 07:44:12;;;;;;;21.05;7.53;;;15.50;96.10;;;;;;4980885;28;20241;-32
2023/05/27 07:46:42;;;;;;;18.92;7.25;;;15.50;96.40;;;;;;4982126;28;20301;-33
2023/05/27 07:49:09;;;;;;;17.75;7.00;;;15.60;96.50;;;;;;4977592;28;20202;-34
2023/05/27 07:51:38;;;;;;;14.88;6.60;;;15.60;96.30;;;;;;4979987;28;20225;-34
2023/05/27 07:54:06;;;;;;;14.80;6.82;;;15.70;96.40;;;;;;4967525;28;20214;-34
2023/05/27 07:56:34;;;;;;;15.82;7.05;;;15.70;96.40;;;;;;4985203;28;20201;-34
2023/05/27 07:59:01;;;;;;;17.75;6.45;;;15.80;96.40;;;;;;5005688;28;20210;-34
2023/05/27 08:01:32;;;;;;;16.25;7.10;;;15.80;96.30;;;;;;4996578;28;20216;-34
2023/05/27 08:04:06;;;;;;;16.58;7.13;;;15.90;96.40;;;;;;5000343;28;20275;-34
2023/05/27 08:06:55;;;;;;;16.73;7.00;;;15.90;96.50;;;;;;4985262;28;20622;-34
2023/05/27 08:09:24;;;;;;;22.58;6.75;;;15.90;96.50;;;;;;4987067;28;20685;-34
2023/05/27 08:11:52;;;;;;;16.77;6.80;;;15.90;96.50;;;;;;4995490;28;20235;-34
2023/05/27 08:14:23;;;;;;;19.80;6.85;;;16.00;96.50;;;;;;4988109;28;20707;-34
2023/05/27 08:16:54;;;;;;;16.55;6.18;;;16.00;96.60;;;;;;4986888;28;20222;-34
2023/05/27 08:19:22;;;;;;;17.55;6.47;;;16.00;96.60;;;;;;4995368;28;20774;-33
2023/05/27 08:21:51;;;;;;;14.07;5.97;;;16.00;96.70;;;;;;4985256;28;20213;-34
2023/05/27 08:24:21;;;;;;;18.42;6.65;;;16.10;96.60;;;;;;4984185;28;20736;-34
2023/05/27 08:26:53;;;;;;;16.70;6.43;;;16.20;96.70;;;;;;5000200;28;20221;-33
2023/05/27 08:29:27;;;;;;;18.33;6.32;;;16.30;96.60;;;;;;5003186;28;20210;-34
2023/05/27 08:31:55;;;;;;;14.30;6.05;;;16.40;96.80;;;;;;4992774;28;20668;-34
2023/05/27 08:34:25;;;;;;;15.13;5.68;;;16.50;96.70;;;;;;4984182;28;20663;-34
2023/05/27 08:36:53;;;;;;;15.25;5.72;;;16.60;96.80;;;;;;4988590;28;20226;-34
2023/05/27 08:39:20;;;;;;;18.23;6.50;;;16.70;96.80;;;;;;4988834;28;20637;-34
2023/05/27 08:41:50;;;;;;;14.50;5.78;;;16.80;96.80;;;;;;4988525;28;20213;-34
2023/05/27 08:44:23;;;;;;;14.70;6.68;;;16.90;96.90;;;;;;4987543;28;21038;-34
2023/05/27 08:46:55;;;;;;;19.02;7.03;;;17.00;96.90;;;;;;4988223;28;20209;-34
2023/05/27 08:49:25;;;;;;;13.05;5.95;;;17.10;97.00;;;;;;4985182;28;20294;-34
2023/05/27 08:52:02;;;;;;;16.42;6.30;;;17.10;96.90;;;;;;4985169;28;20452;-34
2023/05/27 08:54:30;;;;;;;15.00;6.07;;;17.20;96.90;;;;;;4990805;28;20573;-34
2023/05/27 08:57:02;;;;;;;15.80;6.78;;;17.30;96.90;;;;;;4987360;28;20253;-34
2023/05/27 08:59:29;;;;;;;19.50;7.18;;;17.40;97.00;;;;;;4992674;28;20210;-34
2023/05/27 09:02:03;;;;;;;17.55;5.78;;;17.50;97.00;;;;;;4994104;28;20230;-34
2023/05/27 09:04:30;;;;;;;19.10;6.38;;;17.60;97.00;;;;;;4985797;28;20237;-35
2023/05/27 09:06:58;;;;;;;14.07;6.65;;;17.60;97.10;;;;;;4974924;28;20206;-35
2023/05/27 09:09:27;;;;;;;13.50;5.85;;;17.70;97.20;;;;;;4998081;28;20213;-35
2023/05/27 09:11:59;;;;;;;12.65;5.82;;;17.80;97.20;;;;;;5000785;28;20214;-35
2023/05/27 09:14:29;;;;;;;13.27;5.20;;;17.90;97.20;;;;;;4984345;28;20198;-35
2023/05/27 09:17:04;;;;;;;12.65;5.20;;;17.90;97.20;;;;;;4991878;28;20225;-35
2023/05/27 09:19:34;;;;;;;10.27;5.82;;;18.00;97.30;;;;;;4985906;28;20637;-35
2023/05/27 09:22:02;;;;;;;17.08;6.32;;;18.00;97.20;;;;;;4984589;28;20321;-35
2023/05/27 09:24:32;;;;;;;14.50;5.10;;;18.10;97.20;;;;;;4988337;28;20232;-35
2023/05/27 09:27:02;;;;;;;12.50;6.60;;;18.10;97.20;;;;;;4990730;28;20731;-35
2023/05/27 09:29:30;;;;;;;14.85;6.90;;;18.10;97.10;;;;;;4983494;28;20226;-34
2023/05/27 09:32:00;;;;;;;15.93;6.55;;;18.10;97.10;;;;;;4988518;28;20202;-35
2023/05/27 09:34:37;;;;;;;20.60;7.75;;;18.10;97.10;;;;;;4982921;28;20646;-35
2023/05/27 09:37:04;;;;;;;17.20;6.68;;;18.10;97.00;;;;;;5001264;28;20617;-35
2023/05/27 09:39:36;;;;;;;15.98;6.68;;;18.10;97.10;;;;;;4997968;28;20248;-34
2023/05/27 09:42:03;;;;;;;15.32;6.50;;;18.20;97.10;;;;;;4996161;28;20532;-34
2023/05/27 09:44:41;;;;;;;16.02;6.45;;;18.10;97.00;;;;;;4990348;28;20318;-34
2023/05/27 09:47:11;;;;;;;15.07;6.82;;;18.20;97.10;;;;;;4993839;28;20225;-33
2023/05/27 09:49:41;;;;;;;17.70;6.78;;;18.20;97.10;;;;;;4998417;28;20697;-34
2023/05/27 09:52:11;;;;;;;17.10;7.07;;;18.30;97.20;;;;;;4990660;28;20202;-34
2023/05/27 09:54:44;;;;;;;18.15;7.78;;;18.30;97.10;;;;;;4991419;28;20698;-33
2023/05/27 09:57:14;;;;;;;11.00;5.90;;;18.30;97.10;;;;;;4966606;28;20639;-34
2023/05/27 09:59:45;;;;;;;19.17;6.90;;;18.40;97.20;;;;;;4985590;28;20483;-34
2023/05/27 10:02:18;;;;;;;20.90;6.70;;;18.40;97.20;;;;;;4988395;28;20206;-34
2023/05/27 10:04:48;;;;;;;16.67;6.95;;;18.50;97.30;;;;;;4986036;28;20226;-33
2023/05/27 10:07:23;;;;;;;21.45;7.25;;;18.50;97.30;;;;;;4989138;28;20288;-34
2023/05/27 10:10:18;;;;;;;16.02;6.15;;;18.50;97.20;;;;;;5000952;28;20291;-33
2023/05/27 10:12:47;;;;;;;20.83;7.57;;;18.60;97.30;;;;;;4989673;28;20240;-33
2023/05/27 10:15:32;;;;;;;15.48;5.78;;;18.70;97.30;;;;;;4974710;28;20202;-34
2023/05/27 10:18:11;;;;;;;18.10;6.60;;;18.80;97.40;;;;;;4986756;28;20212;-34
2023/05/27 10:20:45;;;;;;;14.43;6.07;;;18.80;97.20;;;;;;4995691;28;20312;-34
2023/05/27 10:23:34;;;;;;;11.60;5.50;;;18.90;97.40;;;;;;4986739;28;20252;-33
2023/05/27 10:26:06;;;;;;;15.32;5.90;;;19.00;97.40;;;;;;4983293;28;20580;-34
2023/05/27 10:28:39;;;;;;;13.68;5.95;;;19.00;97.30;;;;;;4982647;28;20202;-34
2023/05/27 10:31:08;;;;;;;17.15;6.28;;;19.10;97.40;;;;;;4972417;28;20593;-34
2023/05/27 10:33:42;;;;;;;15.60;5.75;;;19.20;97.30;;;;;;4991729;28;20241;-35
2023/05/27 10:36:21;;;;;;;13.75;6.25;;;19.30;97.40;;;;;;4986626;28;20210;-35
2023/05/27 10:39:06;;;;;;;14.45;5.97;;;19.30;97.30;;;;;;4984964;28;21198;-35
2023/05/27 10:41:48;;;;;;;13.27;5.50;;;19.40;97.30;;;;;;4997134;28;20224;-35
2023/05/27 10:44:32;;;;;;;11.50;4.80;;;19.40;97.10;;;;;;4986034;28;20245;-35
2023/05/27 10:47:31;;;;;;;16.05;5.20;;;19.50;97.30;;;;;;4996466;28;20205;-35
2023/05/27 10:50:09;;;;;;;16.42;5.38;;;19.60;97.40;;;;;;4989038;28;20222;-35
2023/05/27 10:52:39;;;;;;;15.38;5.18;;;19.70;97.60;;;;;;4985951;28;20208;-35
2023/05/27 10:55:09;;;;;;;14.50;4.90;;;19.80;97.50;;;;;;4985953;28;20547;-35
2023/05/27 10:57:36;;;;;;;12.65;5.25;;;19.80;97.30;;;;;;4999797;28;20355;-34
2023/05/27 11:00:08;;;;;;;13.85;5.22;;;19.90;97.30;;;;;;4997519;28;20209;-35
2023/05/27 11:02:40;;;;;;;12.35;4.22;;;20.00;97.10;;;;;;5000109;28;20233;-34
2023/05/27 11:05:14;;;;;;;14.60;5.18;;;20.00;97.30;;;;;;4983107;28;20234;-35
2023/05/27 11:07:41;;;;;;;13.35;4.70;;;20.10;97.40;;;;;;4965093;28;20217;-36
2023/05/27 11:10:09;;;;;;;12.68;4.32;;;20.20;97.40;;;;;;4997135;28;20217;-34
2023/05/27 11:12:36;;;;;;;11.38;4.13;;;20.30;97.50;;;;;;4977695;28;20293;-34
2023/05/27 11:15:04;;;;;;;8.85;4.15;;;20.40;97.60;;;;;;4981334;28;20243;-35
2023/05/27 11:17:33;;;;;;;14.02;4.53;;;20.50;97.60;;;;;;4995328;28;20577;-35
2023/05/27 11:20:12;;;;;;;12.77;4.75;;;20.60;97.60;;;;;;4999351;28;20232;-34
2023/05/27 11:22:48;;;;;;;13.00;4.75;;;20.60;97.70;;;;;;4993443;28;20213;-35
2023/05/27 11:25:15;;;;;;;13.63;4.90;;;20.70;97.60;;;;;;4982168;28;20548;-34
2023/05/27 11:27:45;;;;;;;14.27;4.85;;;20.80;97.40;;;;;;4981548;28;20241;-35
2023/05/27 11:30:13;;;;;;;13.90;4.75;;;20.90;97.60;;;;;;4965414;28;20222;-34
2023/05/27 11:32:44;;;;;;;9.48;3.97;;;20.90;97.30;;;;;;4979828;28;20214;-35
2023/05/27 11:35:20;;;;;;;13.80;4.70;;;21.00;97.60;;;;;;4991088;28;20210;-35
2023/05/27 11:37:53;;;;;;;11.55;4.68;;;21.00;97.50;;;;;;4993261;28;20233;-35
2023/05/27 11:40:20;;;;;;;13.70;4.70;;;21.10;97.50;;;;;;4965528;28;20747;-35
2023/05/27 11:42:47;;;;;;;9.98;4.22;;;21.20;97.30;;;;;;4979381;28;20212;-34
2023/05/27 11:45:19;;;;;;;11.02;4.40;;;21.20;97.60;;;;;;4985527;28;20222;-34
2023/05/27 11:47:50;;;;;;;13.13;4.75;;;21.30;96.50;;;;;;4995991;28;20225;-34
2023/05/27 11:50:20;;;;;;;8.40;3.70;;;21.30;97.10;;;;;;4983772;28;20210;-34
2023/05/27 11:52:55;;;;;;;12.68;4.82;;;21.40;97.20;;;;;;4977371;28;20613;-34
2023/05/27 11:55:27;;;;;;;10.90;4.07;;;21.40;97.30;;;;;;4985954;28;20215;-34
2023/05/27 11:57:54;;;;;;;11.80;4.65;;;21.50;97.50;;;;;;4988935;28;20627;-34
2023/05/27 12:00:21;;;;;;;12.93;4.75;;;21.50;97.10;;;;;;4993543;28;20217;-34
2023/05/27 12:02:51;;;;;;;13.35;4.65;;;21.60;97.40;;;;;;4982867;28;20210;-34
2023/05/27 12:05:21;;;;;;;10.70;4.65;;;21.60;97.40;;;;;;4985928;28;20225;-34
2023/05/27 12:08:08;;;;;;;15.75;4.78;;;21.70;97.50;;;;;;4986603;28;20829;-34
2023/05/27 12:10:35;;;;;;;11.00;4.45;;;21.80;97.60;;;;;;4998771;28;20264;-34
2023/05/27 12:13:04;;;;;;;11.77;4.40;;;21.80;97.40;;;;;;4988746;28;20222;-34
2023/05/27 12:15:36;;;;;;;15.70;4.68;;;21.80;97.40;;;;;;4985618;28;20696;-34
2023/05/27 12:18:06;;;;;;;11.77;4.53;;;21.90;97.40;;;;;;4995306;28;20212;-34
2023/05/27 12:20:33;;;;;;;11.98;4.82;;;22.00;97.50;;;;;;4983320;28;20201;-35
2023/05/27 12:23:01;;;;;;;12.27;4.65;;;22.00;97.40;;;;;;4981928;28;20225;-35
2023/05/27 12:25:30;;;;;;;15.32;4.68;;;22.10;97.40;;;;;;4999761;28;20252;-35
2023/05/27 12:28:00;;;;;;;8.80;4.10;;;22.10;97.10;;;;;;4994769;28;20225;-37
2023/05/27 12:30:30;;;;;;;12.95;4.50;;;22.20;97.20;;;;;;4975439;28;20245;-37
2023/05/27 12:32:58;;;;;;;15.35;4.53;;;22.20;96.80;;;;;;4985233;28;20225;-37
2023/05/27 12:35:26;;;;;;;14.88;4.78;;;22.20;96.40;;;;;;4989860;28;20528;-37
2023/05/27 12:37:57;;;;;;;11.05;4.68;;;22.20;96.30;;;;;;4982297;28;20698;-37
2023/05/27 12:40:25;;;;;;;12.05;3.90;;;22.20;96.70;;;;;;4983463;28;20667;-37
2023/05/27 12:42:53;;;;;;;10.80;4.22;;;22.30;97.20;;;;;;4998007;28;20560;-37
2023/05/27 12:45:22;;;;;;;10.38;4.13;;;22.30;96.80;;;;;;4982980;28;20609;-37
2023/05/27 12:47:52;;;;;;;9.45;4.30;;;22.40;96.50;;;;;;4989626;28;20222;-37
2023/05/27 12:50:22;;;;;;;10.55;4.57;;;22.40;96.70;;;;;;4986773;28;20225;-38
2023/05/27 12:52:52;;;;;;;13.70;4.32;;;22.50;96.80;;;;;;4993950;28;20670;-37
2023/05/27 12:55:24;;;;;;;10.73;4.20;;;22.50;96.80;;;;;;4986074;28;20222;-38
2023/05/27 12:57:52;;;;;;;12.57;3.70;;;22.60;96.10;;;;;;4983077;28;20242;-38